createdAt,value
2019-01-16T00:00:56.451Z,64.80
2019-01-16T00:03:56.724Z,64.80
2019-01-16T00:06:56.748Z,64.40
2019-01-16T00:09:56.800Z,64.60
2019-01-16T00:13:02.623Z,64.70
2019-01-16T00:15:49.677Z,64.80
2019-01-16T00:18:48.940Z,64.90
2019-01-16T00:21:48.924Z,65.30
2019-01-16T00:24:48.314Z,65.00
2019-01-16T00:27:40.457Z,65.00
2019-01-16T00:30:34.784Z,65.10
2019-01-16T00:33:30.246Z,65.00
2019-01-16T00:36:29.878Z,65.00
2019-01-16T00:39:29.089Z,64.80
2019-01-16T00:42:35.647Z,65.00
2019-01-16T00:45:32.004Z,64.80
2019-01-16T00:48:24.536Z,64.40
2019-01-16T00:51:35.342Z,65.40
2019-01-16T00:54:22.478Z,65.10
2019-01-16T00:57:14.177Z,65.30
2019-01-16T00:59:52.028Z,65.50
2019-01-16T01:02:34.721Z,65.20
2019-01-16T01:05:16.513Z,65.40
2019-01-16T01:08:05.332Z,65.70
2019-01-16T01:11:10.438Z,65.70
2019-01-16T01:14:15.822Z,65.50
2019-01-16T01:17:20.948Z,65.70
2019-01-16T01:20:20.650Z,66.30
2019-01-16T01:23:08.207Z,65.90
2019-01-16T01:26:14.678Z,66.40
2019-01-16T01:29:07.986Z,66.40
2019-01-16T01:32:07.657Z,66.60
2019-01-16T01:35:07.368Z,66.10
2019-01-16T01:38:06.482Z,65.90
2019-01-16T01:41:01.038Z,66.50
2019-01-16T01:43:54.699Z,66.20
2019-01-16T01:46:47.950Z,66.20
2019-01-16T01:49:41.374Z,66.80
2019-01-16T01:52:41.108Z,66.10
2019-01-16T01:55:40.281Z,66.40
2019-01-16T01:58:42.342Z,66.40
2019-01-16T02:01:35.969Z,66.40
2019-01-16T02:04:29.472Z,66.20
2019-01-16T02:07:29.050Z,65.90
2019-01-16T02:10:28.627Z,66.20
2019-01-16T02:13:31.102Z,66.10
2019-01-16T02:16:30.788Z,66.70
2019-01-16T02:19:37.056Z,66.90
2019-01-16T02:22:36.300Z,67.20
2019-01-16T02:25:35.460Z,67.30
2019-01-16T02:28:25.887Z,67.70
2019-01-16T02:31:15.792Z,68.00
2019-01-16T02:34:20.972Z,68.10
2019-01-16T02:37:20.377Z,67.90
2019-01-16T02:40:20.375Z,68.00
2019-01-16T02:43:09.447Z,68.90
2019-01-16T02:46:08.742Z,69.00
2019-01-16T02:49:12.068Z,69.30
2019-01-16T02:52:00.111Z,69.30
2019-01-16T02:54:59.935Z,69.50
2019-01-16T02:57:51.288Z,69.10
2019-01-16T03:00:51.085Z,69.30
2019-01-16T03:03:51.404Z,69.60
2019-01-16T03:06:50.458Z,69.50
2019-01-16T03:09:54.224Z,69.40
2019-01-16T03:13:00.701Z,69.50
2019-01-16T03:15:48.865Z,69.40
2019-01-16T03:18:48.470Z,69.20
2019-01-16T03:21:47.634Z,69.40
2019-01-16T03:24:44.798Z,69.60
2019-01-16T03:28:07.306Z,69.80
2019-01-16T03:31:06.727Z,69.80
2019-01-16T03:34:06.584Z,70.00
2019-01-16T03:37:12.336Z,69.90
2019-01-16T03:40:08.164Z,70.10
2019-01-16T03:43:07.389Z,70.30
2019-01-16T03:45:54.076Z,70.10
2019-01-16T03:48:54.083Z,70.10
2019-01-16T03:51:54.038Z,70.20
2019-01-16T03:54:53.273Z,70.30
2019-01-16T03:57:53.238Z,70.70
2019-01-16T04:00:52.573Z,70.40
2019-01-16T04:03:52.668Z,70.50
2019-01-16T04:06:51.889Z,70.40
2019-01-16T04:09:51.200Z,70.90
2019-01-16T04:12:51.413Z,70.70
2019-01-16T04:15:40.524Z,71.00
2019-01-16T04:18:40.530Z,70.70
2019-01-16T04:21:26.791Z,70.20
2019-01-16T04:24:26.035Z,70.50
2019-01-16T04:27:25.922Z,70.40
2019-01-16T04:30:13.618Z,70.40
2019-01-16T04:33:34.676Z,71.20
2019-01-16T04:36:33.816Z,72.00
2019-01-16T04:39:26.577Z,71.90
2019-01-16T04:42:26.259Z,72.10
2019-01-16T04:45:25.662Z,72.10
2019-01-16T04:48:24.909Z,72.20
2019-01-16T04:51:24.205Z,72.10
2019-01-16T04:54:18.227Z,72.70
2019-01-16T04:57:17.700Z,73.10
2019-01-16T05:00:12.530Z,73.20
2019-01-16T05:03:12.563Z,73.20
2019-01-16T05:06:12.443Z,72.60
2019-01-16T05:09:11.703Z,72.70
2019-01-16T05:12:01.935Z,72.90
2019-01-16T05:15:01.057Z,72.70
2019-01-16T05:18:00.690Z,72.90
2019-01-16T05:21:00.123Z,72.20
2019-01-16T05:24:00.135Z,72.80
2019-01-16T05:27:02.697Z,71.80
2019-01-16T05:30:00.185Z,72.00
2019-01-16T05:32:48.945Z,72.00
2019-01-16T05:35:44.895Z,72.80
2019-01-16T05:38:47.616Z,73.20
2019-01-16T05:41:46.815Z,73.10
2019-01-16T05:44:53.275Z,72.90
2019-01-16T05:47:52.576Z,72.70
2019-01-16T05:50:51.937Z,72.80
2019-01-16T05:53:54.845Z,72.70
2019-01-16T05:56:54.212Z,72.10
2019-01-16T05:59:53.501Z,71.40
2019-01-16T06:02:52.786Z,71.30
2019-01-16T06:05:51.932Z,71.00
2019-01-16T06:08:52.006Z,71.60
2019-01-16T06:11:54.404Z,71.30
2019-01-16T06:14:59.840Z,71.10
2019-01-16T06:17:59.719Z,72.10
2019-01-16T06:20:57.410Z,72.20
2019-01-16T06:23:54.314Z,71.80
2019-01-16T06:26:43.030Z,71.00
2019-01-16T06:29:42.464Z,71.40
2019-01-16T06:32:42.392Z,70.80
2019-01-16T06:35:41.551Z,70.20
2019-01-16T06:38:40.985Z,70.70
2019-01-16T06:41:40.968Z,70.80
2019-01-16T06:44:41.034Z,70.40
2019-01-16T06:47:43.114Z,70.30
2019-01-16T06:50:42.482Z,71.70
2019-01-16T06:53:38.756Z,72.80
2019-01-16T06:56:38.820Z,74.10
2019-01-16T06:59:45.786Z,74.50
2019-01-16T07:02:45.720Z,74.60
2019-01-16T07:05:45.117Z,75.10
2019-01-16T07:08:36.926Z,75.30
2019-01-16T07:11:36.258Z,75.00
2019-01-16T07:14:41.628Z,75.10
2019-01-16T07:17:47.626Z,74.80
2019-01-16T07:20:27.969Z,74.60
2019-01-16T07:23:18.836Z,74.60
2019-01-16T07:26:08.821Z,74.50
2019-01-16T07:29:11.308Z,74.70
2019-01-16T07:32:04.289Z,74.90
2019-01-16T07:35:09.468Z,75.20
2019-01-16T07:38:36.321Z,75.00
2019-01-16T07:41:37.497Z,75.00
2019-01-16T07:44:37.392Z,74.60
2019-01-16T07:47:36.500Z,73.30
2019-01-16T07:50:35.638Z,73.00
2019-01-16T07:53:35.043Z,72.80
2019-01-16T07:56:34.961Z,72.30
2019-01-16T07:59:34.009Z,72.60
2019-01-16T08:02:35.934Z,73.70
2019-01-16T08:05:35.390Z,73.00
2019-01-16T08:08:28.706Z,73.10
2019-01-16T08:11:22.578Z,73.30
2019-01-16T08:14:29.455Z,73.80
2019-01-16T08:17:23.788Z,73.90
2019-01-16T08:20:25.152Z,74.10
2019-01-16T08:23:24.924Z,73.80
2019-01-16T08:26:18.841Z,73.60
2019-01-16T08:29:18.439Z,75.70
2019-01-16T08:32:18.666Z,75.30
2019-01-16T08:35:21.720Z,75.80
2019-01-16T08:38:15.992Z,76.20
2019-01-16T08:41:22.000Z,76.30
2019-01-16T08:44:13.904Z,76.50
2019-01-16T08:47:53.579Z,76.60
2019-01-16T08:50:52.858Z,76.80
2019-01-16T08:53:59.430Z,76.90
2019-01-16T08:56:59.194Z,76.70
2019-01-16T08:59:53.208Z,76.90
2019-01-16T09:03:00.484Z,77.30
2019-01-16T09:06:06.026Z,76.60
2019-01-16T09:09:24.183Z,76.60
2019-01-16T09:12:16.656Z,76.70
2019-01-16T09:15:16.320Z,76.60
2019-01-16T09:18:18.366Z,76.50
2019-01-16T09:21:06.124Z,77.00
2019-01-16T09:24:09.248Z,76.50
2019-01-16T09:27:09.106Z,75.80
2019-01-16T09:30:11.573Z,75.60
2019-01-16T09:33:11.708Z,75.60
2019-01-16T09:36:13.872Z,75.60
2019-01-16T09:39:16.139Z,75.40
2019-01-16T09:42:16.150Z,75.20
2019-01-16T09:45:16.212Z,75.50
2019-01-16T09:48:16.365Z,75.70
2019-01-16T09:51:15.779Z,76.00
2019-01-16T09:54:14.984Z,76.10
2019-01-16T09:57:18.368Z,75.90
2019-01-16T10:00:17.670Z,75.70
2019-01-16T10:03:17.064Z,75.70
2019-01-16T10:06:17.108Z,75.90
2019-01-16T10:09:10.990Z,75.60
2019-01-16T10:12:10.650Z,75.20
2019-01-16T10:15:11.163Z,75.60
2019-01-16T10:17:52.190Z,75.30
2019-01-16T10:23:53.677Z,75.80
2019-01-16T10:30:01.658Z,75.40
2019-01-16T10:33:23.064Z,75.80
2019-01-16T10:36:22.992Z,75.40
2019-01-16T10:39:22.906Z,75.70
2019-01-16T10:42:26.939Z,75.60
2019-01-16T10:45:33.711Z,75.60
2019-01-16T10:48:33.568Z,75.90
2019-01-16T10:51:39.813Z,75.70
2019-01-16T10:54:35.377Z,75.20
2019-01-16T10:57:33.398Z,75.60
2019-01-16T11:00:33.358Z,75.00
2019-01-16T11:03:23.660Z,75.30
2019-01-16T11:06:23.894Z,75.00
2019-01-16T11:09:24.243Z,74.90
2019-01-16T11:12:24.087Z,74.40
2019-01-16T11:15:23.212Z,74.50
2019-01-16T11:18:22.446Z,74.10
2019-01-16T11:21:28.118Z,74.70
2019-01-16T11:24:15.098Z,74.40
2019-01-16T11:27:21.579Z,73.20
2019-01-16T11:30:20.719Z,73.70
2019-01-16T11:33:19.995Z,73.50
2019-01-16T11:36:20.021Z,72.50
2019-01-16T11:39:19.488Z,74.00
2019-01-16T11:42:19.452Z,73.30
2019-01-16T11:45:18.778Z,72.20
2019-01-16T11:48:17.923Z,74.00
2019-01-16T11:51:18.978Z,72.70
2019-01-16T11:54:19.357Z,71.80
2019-01-16T11:57:19.246Z,70.60
2019-01-16T12:00:14.545Z,71.40
2019-01-16T12:03:05.798Z,71.20
2019-01-16T12:06:05.770Z,71.40
2019-01-16T12:09:05.840Z,69.50
2019-01-16T12:12:05.143Z,70.60
2019-01-16T12:14:56.436Z,68.40
2019-01-16T12:17:49.016Z,68.90
2019-01-16T12:20:55.756Z,68.10
2019-01-16T12:23:53.380Z,66.70
2019-01-16T12:26:52.836Z,66.70
2019-01-16T12:29:40.210Z,63.90
2019-01-16T12:32:40.366Z,64.80
2019-01-16T12:35:31.388Z,64.30
2019-01-16T12:38:31.350Z,64.80
2019-01-16T12:41:30.787Z,64.80
2019-01-16T12:44:19.556Z,65.40
2019-01-16T12:50:24.642Z,65.20
2019-01-16T12:53:18.026Z,65.00
2019-01-16T12:56:17.912Z,65.40
2019-01-16T12:59:17.092Z,65.60
2019-01-16T13:02:22.508Z,65.20
2019-01-16T13:05:28.624Z,65.00
2019-01-16T13:08:22.091Z,65.30
2019-01-16T13:11:21.844Z,66.30
2019-01-16T13:14:30.071Z,65.90
2019-01-16T13:17:54.863Z,66.40
2019-01-16T13:21:00.693Z,65.90
2019-01-16T13:24:22.241Z,65.80
2019-01-16T13:27:24.526Z,66.10
2019-01-16T13:30:21.312Z,65.50
2019-01-16T13:33:14.528Z,65.60
2019-01-16T13:36:20.452Z,65.90
2019-01-16T13:39:25.765Z,65.10
2019-01-16T13:42:28.876Z,65.70
2019-01-16T13:45:27.911Z,66.20
2019-01-16T13:48:24.161Z,65.30
2019-01-16T13:51:24.239Z,65.40
2019-01-16T13:54:23.468Z,64.10
2019-01-16T13:57:22.832Z,64.50
2019-01-16T14:00:22.821Z,64.60
2019-01-16T14:03:03.686Z,64.90
2019-01-16T14:05:54.813Z,65.00
2019-01-16T14:08:59.991Z,65.00
2019-01-16T14:12:02.552Z,64.60
2019-01-16T14:14:59.618Z,64.70
2019-01-16T14:18:14.447Z,64.10
2019-01-16T14:21:32.881Z,64.70
2019-01-16T14:24:32.599Z,65.50
2019-01-16T14:27:32.622Z,65.10
2019-01-16T14:31:13.615Z,65.70
2019-01-16T14:36:58.453Z,65.50
2019-01-16T14:39:50.400Z,65.40
2019-01-16T14:42:53.430Z,65.60
2019-01-16T14:45:59.540Z,66.00
2019-01-16T14:52:00.793Z,66.40
2019-01-16T14:55:05.878Z,66.60
2019-01-16T14:57:55.432Z,66.80
2019-01-16T15:00:55.058Z,66.30
2019-01-16T15:03:51.024Z,66.00
2019-01-16T15:06:50.487Z,66.50
2019-01-16T15:09:53.111Z,66.60
2019-01-16T15:15:28.370Z,66.70
2019-01-16T15:18:28.496Z,66.50
2019-01-16T15:21:21.600Z,66.40
2019-01-16T15:24:15.409Z,66.90
2019-01-16T15:27:04.184Z,67.00
2019-01-16T15:30:04.208Z,66.90
2019-01-16T15:33:03.956Z,66.60
2019-01-16T15:36:03.774Z,67.10
2019-01-16T15:39:24.734Z,66.90
2019-01-16T15:42:24.176Z,66.00
2019-01-16T15:45:24.005Z,66.10
2019-01-16T15:48:23.358Z,66.00
2019-01-16T15:51:23.601Z,65.60
2019-01-16T15:54:25.706Z,65.40
2019-01-16T15:57:24.935Z,64.00
2019-01-16T16:00:24.345Z,62.30
2019-01-16T16:03:24.046Z,60.90
2019-01-16T16:06:26.822Z,60.50
2019-01-16T16:09:21.815Z,58.70
2019-01-16T16:12:25.074Z,56.90
2019-01-16T16:15:25.008Z,55.70
2019-01-16T16:18:22.282Z,55.60
2019-01-16T16:21:25.438Z,55.30
2019-01-16T16:24:25.387Z,54.70
2019-01-16T16:27:24.632Z,54.60
2019-01-16T16:30:16.250Z,54.00
2019-01-16T16:33:02.580Z,53.90
2019-01-16T16:36:08.483Z,53.20
2019-01-16T16:39:07.591Z,53.00
2019-01-16T16:42:06.956Z,53.00
2019-01-16T16:45:06.253Z,53.10
2019-01-16T16:48:05.930Z,53.20
2019-01-16T16:54:04.096Z,53.00
2019-01-16T16:57:03.836Z,53.60
2019-01-16T17:00:03.859Z,53.50
2019-01-16T17:03:01.470Z,53.20
2019-01-16T17:06:01.419Z,52.90
2019-01-16T17:09:00.880Z,51.90
2019-01-16T17:12:03.172Z,51.70
2019-01-16T17:14:57.300Z,51.20
2019-01-16T17:17:56.675Z,51.00
2019-01-16T17:21:01.909Z,50.30
2019-01-16T17:24:04.037Z,50.60
2019-01-16T17:27:03.370Z,50.50
2019-01-16T17:30:02.782Z,50.90
2019-01-16T17:36:08.152Z,51.30
2019-01-16T17:39:07.380Z,51.30
2019-01-16T17:41:59.830Z,52.40
2019-01-16T17:44:59.020Z,51.20
2019-01-16T17:47:58.370Z,50.70
2019-01-16T17:50:57.696Z,51.10
2019-01-16T17:54:00.212Z,51.30
2019-01-16T17:56:47.201Z,51.40
2019-01-16T17:59:53.676Z,51.70
2019-01-16T18:02:45.624Z,51.30
2019-01-16T18:05:45.465Z,51.70
2019-01-16T18:08:47.572Z,51.60
2019-01-16T18:11:47.037Z,51.40
2019-01-16T18:14:46.237Z,51.30
2019-01-16T18:17:45.678Z,51.40
2019-01-16T18:20:47.677Z,51.30
2019-01-16T18:23:44.332Z,51.40
2019-01-16T18:26:44.917Z,51.40
2019-01-16T18:29:44.284Z,51.30
2019-01-16T18:32:43.484Z,51.10
2019-01-16T18:35:45.723Z,51.70
2019-01-16T18:38:34.406Z,51.30
2019-01-16T18:41:33.978Z,51.50
2019-01-16T18:44:33.422Z,51.50
2019-01-16T18:51:09.292Z,51.70
2019-01-16T18:54:05.334Z,51.90
2019-01-16T18:57:05.635Z,52.50
2019-01-16T18:59:59.426Z,52.00
2019-01-16T19:02:51.379Z,52.20
2019-01-16T19:05:50.874Z,51.80
2019-01-16T19:11:54.191Z,52.20
2019-01-16T19:14:53.837Z,52.30
2019-01-16T19:17:59.137Z,52.60
2019-01-16T19:20:58.605Z,53.00
2019-01-16T19:23:58.280Z,53.80
2019-01-16T19:26:57.700Z,53.20
2019-01-16T19:29:57.288Z,53.70
2019-01-16T19:32:59.349Z,54.20
2019-01-16T19:35:58.810Z,54.10
2019-01-16T19:38:57.963Z,55.00
2019-01-16T19:41:57.326Z,55.20
2019-01-16T19:44:57.227Z,55.10
2019-01-16T19:47:59.492Z,55.80
2019-01-16T19:51:26.668Z,56.60
2019-01-16T19:54:26.179Z,57.10
2019-01-16T19:57:20.184Z,57.10
2019-01-16T20:00:15.451Z,57.10
2019-01-16T20:03:15.386Z,57.40
2019-01-16T20:06:13.287Z,58.00
2019-01-16T20:15:12.661Z,57.50
2019-01-16T20:18:09.598Z,57.70
2019-01-16T20:21:08.647Z,58.90
2019-01-16T20:24:07.824Z,58.40
2019-01-16T20:27:07.306Z,59.00
2019-01-16T20:30:01.430Z,59.20
2019-01-16T20:33:00.760Z,59.50
2019-01-16T20:35:57.817Z,59.20
2019-01-16T20:39:02.965Z,59.30
2019-01-16T20:42:24.602Z,59.90
2019-01-16T20:45:24.048Z,60.00
2019-01-16T20:48:23.668Z,59.90
2019-01-16T20:51:28.703Z,60.40
2019-01-16T20:54:28.068Z,60.10
2019-01-16T20:57:18.648Z,60.20
2019-01-16T21:00:18.338Z,60.80
2019-01-16T21:03:13.208Z,61.40
2019-01-16T21:06:12.615Z,62.00
2019-01-16T21:09:10.223Z,62.20
2019-01-16T21:12:16.992Z,62.40
2019-01-16T21:15:19.703Z,62.70
2019-01-16T21:18:07.078Z,62.70
2019-01-16T21:21:07.026Z,62.90
2019-01-16T21:23:55.328Z,62.80
2019-01-16T21:26:55.338Z,63.00
2019-01-16T21:29:59.009Z,62.90
2019-01-16T21:33:10.519Z,62.90
2019-01-16T21:36:08.267Z,62.60
2019-01-16T21:39:08.019Z,62.90
2019-01-16T21:42:05.836Z,62.40
2019-01-16T21:45:05.682Z,62.70
2019-01-16T21:48:05.935Z,63.10
2019-01-16T21:51:00.535Z,63.50
2019-01-16T21:54:00.170Z,63.30
2019-01-16T21:56:56.876Z,63.50
2019-01-16T21:59:45.990Z,63.50
2019-01-16T22:02:36.685Z,63.70
2019-01-16T22:05:32.188Z,63.80
2019-01-16T22:08:31.898Z,63.90
2019-01-16T22:11:31.750Z,63.70
2019-01-16T22:14:20.117Z,63.60
2019-01-16T22:17:10.601Z,63.80
2019-01-16T22:20:10.512Z,63.70
2019-01-16T22:23:10.489Z,63.60
2019-01-16T22:26:10.337Z,63.70
2019-01-16T22:29:09.874Z,64.00
2019-01-16T22:32:09.126Z,64.10
2019-01-16T22:35:08.624Z,64.00
2019-01-16T22:38:08.000Z,64.50
2019-01-16T22:41:07.374Z,64.20
2019-01-16T22:44:06.768Z,64.60
2019-01-16T22:47:05.860Z,64.90
2019-01-16T22:50:05.142Z,64.90
2019-01-16T22:52:53.362Z,64.90
2019-01-16T22:55:53.350Z,64.70
2019-01-16T22:58:51.522Z,65.10
2019-01-16T23:01:42.387Z,65.30
2019-01-16T23:04:33.130Z,65.70
2019-01-16T23:07:35.734Z,66.20
2019-01-16T23:10:35.314Z,66.30
2019-01-16T23:13:37.375Z,66.40
2019-01-16T23:16:37.050Z,66.60
2019-01-16T23:19:30.440Z,66.80
2019-01-16T23:22:30.073Z,66.90
2019-01-16T23:25:25.853Z,67.00
2019-01-16T23:28:25.462Z,67.30
2019-01-16T23:31:28.130Z,67.30
2019-01-16T23:34:16.589Z,67.40
2019-01-16T23:37:21.956Z,67.40
2019-01-16T23:40:24.256Z,67.50
2019-01-16T23:43:13.943Z,67.60
2019-01-16T23:46:08.680Z,67.60
2019-01-16T23:49:08.252Z,67.70
2019-01-16T23:52:08.283Z,67.80
2019-01-16T23:55:07.653Z,67.90
2019-01-16T23:58:07.675Z,68.10
